To NAV CANADA Home Page Login to a new session Search on AWWS site Feedback and Comments Disclaimer Vers la page française équivalente Tips FAQ What's new on the site To the Forecasts and Observations / NOTAM section To "File a Flight Plan" website Publications and other links Update of the User's profile FIC Telephone Numbers My Weather Data Folder Route Weather Data Regional Weather Data Local Weather Data To the Forecasts and Observations / NOTAM section
Request Generated 06/26/2017 at 22:22:57 UTC . Weather information available at that time is displayed.

METAR/TAF

STONY RAPIDS/SK    (show WxCam)

METAR CYSF 262200Z AUTO VRB04KT 9SM CLR 26/05 A2975 RMK SLP083
DENSITY ALT 2500FT=
METAR CYSF 262100Z AUTO 33004KT 300V040 9SM CLR 26/04 A2977 RMK
SLP090 DENSITY ALT 2400FT=
METAR CYSF 262000Z AUTO 30005KT 210V350 9SM CLR 26/05 A2980 RMK
SLP098 DENSITY ALT 2300FT=

TAF CYSF 261738Z 2618/2706 31005KT P6SM SKC
RMK FCST BASED ON AUTO OBS. NXT FCST BY 270000Z=
Your time UTC time
Weather data provided by Environment Canada and NAV CANADA